Mickleton, United Kingdom
Current Conditions -  °F | °C
As of 6:50 AM on Sunday 26 Oct 2014 (Local Time) from EGVN Reporting Station
Broken Clouds Broken Clouds  
Wind Chill: 54°   Ceiling: 3200
Heat Index: 54°   Visibility: 6mi
Dew Point: 45°   Wind: 10mph
Humidity: 72%   Direction: 230°SW
Pressure: 30.09"   Gusts: NA
Location:  52.08°N, 1.77°W
Report Text: EGVN 260550Z 23009KT 9999 BKN032 12/07 Q1019 NOSIG
Loading
Personal Weather Stations






























Interactive Weather Map
Tropical Storm Tracking
New forecast layout! Learn more

10-Day Weather Forecast

Advertisements
Track Severe Weather on mobile